Time;durP1;ratioP1;P1;durP2;ratioP2;P2;SDS_P1;SDS_P2;PMS_P1;PMS_P2;Temp;Humidity;BMP_temperature;BMP_pressure;BME280_temperature;BME280_humidity;BME280_pressure;Samples;Min_cycle;Max_cycle;Signal;HPM_P1;HPM_P2
2022/10/31 00:01:02;;;;;;;43.80;29.48;;;;;;;9.92;87.67;101034.15;1799204;78;26411;-78
2022/10/31 00:03:30;;;;;;;46.73;31.07;;;;;;;9.90;87.64;101035.64;1797607;78;26384;-77
2022/10/31 00:05:56;;;;;;;46.75;32.28;;;;;;;9.89;87.77;101033.98;1803996;78;25699;-77
2022/10/31 00:08:22;;;;;;;46.92;32.70;;;;;;;9.90;87.85;101038.31;1826362;77;27494;-80
2022/10/31 00:10:49;;;;;;;46.15;31.15;;;;;;;9.89;87.86;101031.80;1803833;78;25810;-78
2022/10/31 00:13:15;;;;;;;50.50;32.28;;;;;;;9.88;87.75;101032.30;1782965;78;25998;-78
2022/10/31 00:15:41;;;;;;;55.52;32.55;;;;;;;9.86;87.51;101031.64;1793567;79;27095;-76
2022/10/31 00:18:09;;;;;;;42.53;29.72;;;;;;;9.84;87.43;101032.81;1808372;78;25829;-78
2022/10/31 00:20:36;;;;;;;46.48;29.82;;;;;;;9.83;87.54;101037.35;1807867;77;28231;-78
2022/10/31 00:23:04;;;;;;;39.67;27.85;;;;;;;9.82;87.28;101032.15;1831179;77;26513;-79
2022/10/31 00:25:37;;;;;;;41.37;27.87;;;;;;;9.77;87.06;101028.64;1797104;78;25794;-79
2022/10/31 00:28:06;;;;;;;41.48;26.80;;;;;;;9.72;86.99;101029.69;1827062;77;25760;-77
2022/10/31 00:30:33;;;;;;;46.28;29.50;;;;;;;9.68;86.94;101028.85;1824700;77;26461;-78
2022/10/31 00:32:59;;;;;;;51.68;35.95;;;;;;;9.64;87.06;101032.38;1830163;77;28262;-78
2022/10/31 00:35:26;;;;;;;49.25;32.93;;;;;;;9.64;87.36;101033.72;1809789;78;25800;-78
2022/10/31 00:37:54;;;;;;;46.45;32.48;;;;;;;9.64;87.25;101032.88;1834588;77;25942;-79
2022/10/31 00:40:20;;;;;;;45.10;31.65;;;;;;;9.60;87.12;101035.56;1829907;77;25751;-77
2022/10/31 00:42:47;;;;;;;45.65;32.30;;;;;;;9.55;87.12;101038.74;1824721;77;25741;-77
2022/10/31 00:45:13;;;;;;;45.28;29.98;;;;;;;9.53;87.08;101039.91;1827207;77;27988;-79
2022/10/31 00:47:40;;;;;;;45.90;31.62;;;;;;;9.51;87.13;101038.75;1832810;77;25765;-78
2022/10/31 00:50:07;;;;;;;48.08;32.17;;;;;;;9.50;87.02;101039.73;1810957;78;25759;-78
2022/10/31 00:52:34;;;;;;;49.65;32.98;;;;;;;9.48;86.85;101042.23;1795573;79;25813;-77
2022/10/31 00:55:02;;;;;;;46.53;31.12;;;;;;;9.47;86.84;101038.76;1815937;78;25770;-77
2022/10/31 00:57:28;;;;;;;47.53;29.77;;;;;;;9.44;86.85;101033.73;1811025;78;28146;-78
2022/10/31 00:59:55;;;;;;;41.30;29.82;;;;;;;9.44;86.99;101030.22;1848835;76;26018;-78
2022/10/31 01:02:21;;;;;;;45.85;29.00;;;;;;;9.44;87.05;101038.23;1815369;78;25762;-79
2022/10/31 01:04:49;;;;;;;45.48;29.48;;;;;;;9.43;87.16;101037.39;1813158;77;25798;-77
2022/10/31 01:07:15;;;;;;;55.85;31.75;;;;;;;9.40;86.97;101035.08;1806786;78;26193;-77
2022/10/31 01:09:43;;;;;;;61.53;31.35;;;;;;;9.37;86.97;101039.94;1766147;80;27450;-79
2022/10/31 01:12:09;;;;;;;49.42;31.70;;;;;;;9.35;87.25;101032.06;1818369;78;25720;-78
2022/10/31 01:14:38;;;;;;;61.58;32.63;;;;;;;9.34;87.39;101031.22;1811197;78;25929;-79
2022/10/31 01:17:04;;;;;;;64.30;34.20;;;;;;;9.31;87.36;101032.91;1793984;78;26548;-77
2022/10/31 01:19:30;;;;;;;59.40;33.13;;;;;;;9.26;87.36;101029.89;1818690;78;25746;-77
2022/10/31 01:21:57;;;;;;;49.30;32.75;;;;;;;9.23;87.45;101036.09;1804269;78;27427;-79
2022/10/31 01:24:26;;;;;;;45.40;31.42;;;;;;;9.20;87.53;101031.91;1799321;78;52881;-78
2022/10/31 01:26:54;;;;;;;49.83;33.10;;;;;;;9.20;87.62;101027.90;1812383;77;26403;-77
2022/10/31 01:29:20;;;;;;;48.38;33.08;;;;;;;9.19;87.63;101032.09;1812996;78;25728;-79
2022/10/31 01:31:46;;;;;;;44.40;32.48;;;;;;;9.17;87.60;101034.91;1812271;77;25805;-79
2022/10/31 01:34:16;;;;;;;47.25;33.02;;;;;;;9.16;87.65;101030.58;1838851;77;27465;-79
2022/10/31 01:36:47;;;;;;;59.98;31.37;;;;;;;9.16;87.75;101028.39;1814907;78;25926;-77
2022/10/31 01:39:15;;;;;;;57.30;31.55;;;;;;;9.15;87.54;101030.23;1803807;78;25548;-78
2022/10/31 01:41:48;;;;;;;46.88;32.10;;;;;;;9.11;87.26;101022.21;1795443;78;26574;-78
2022/10/31 01:44:19;;;;;;;45.05;29.95;;;;;;;9.07;87.34;101024.89;1827317;77;25730;-77
2022/10/31 01:47:01;;;;;;;43.65;29.55;;;;;;;9.06;87.42;101019.22;1843440;76;27524;-78
2022/10/31 01:49:33;;;;;;;47.70;30.25;;;;;;;9.01;87.15;101017.55;1791169;78;26518;-77
2022/10/31 01:52:08;;;;;;;54.42;32.35;;;;;;;8.98;87.30;101017.86;1830007;77;26109;-79
2022/10/31 01:54:40;;;;;;;48.75;32.42;;;;;;;8.97;87.41;101010.86;1819571;77;25866;-79
2022/10/31 01:57:10;;;;;;;51.10;33.45;;;;;;;8.98;87.19;101019.20;1834902;77;26107;-79
2022/10/31 01:59:41;;;;;;;59.10;34.85;;;;;;;8.96;87.03;101019.05;1839300;76;28250;-81
2022/10/31 02:02:08;;;;;;;56.10;32.48;;;;;;;8.94;87.05;101014.38;1830439;77;25845;-80
2022/10/31 02:04:35;;;;;;;46.65;31.77;;;;;;;8.91;87.26;101017.38;1807809;78;25903;-80
2022/10/31 02:07:14;;;;;;;59.73;29.75;;;;;;;8.90;87.40;101020.53;1799742;78;26467;-78
2022/10/31 02:09:42;;;;;;;43.17;27.52;;;;;;;8.87;87.11;101014.70;1811643;78;25815;-78
2022/10/31 02:12:10;;;;;;;43.70;27.48;;;;;;;8.83;87.21;101019.52;1815310;78;27513;-79
2022/10/31 02:14:40;;;;;;;40.13;28.23;;;;;;;8.82;87.12;101027.21;1811749;77;25835;-78
2022/10/31 02:17:06;;;;;;;39.33;26.87;;;;;;;8.72;86.97;101015.02;1811620;78;25764;-80
2022/10/31 02:19:58;;;;;;;38.17;27.85;;;;;;;8.73;87.10;101025.52;1798948;78;26503;-80
2022/10/31 02:23:00;;;;;;;47.75;30.77;;;;;;;8.71;87.24;101032.02;1839817;76;25703;-79
2022/10/31 02:25:58;;;;;;;50.28;32.28;;;;;;;8.70;87.54;101028.54;1810569;78;28159;-78
2022/10/31 02:28:50;;;;;;;49.45;33.67;;;;;;;8.69;87.95;101028.19;1810493;78;25719;-78
2022/10/31 02:31:56;;;;;;;48.52;32.33;;;;;;;8.72;88.05;101037.71;1815636;78;25854;-81
2022/10/31 02:34:46;;;;;;;46.08;32.85;;;;;;;8.73;88.31;101030.02;1815222;78;26443;-79
2022/10/31 02:37:45;;;;;;;42.23;31.47;;;;;;;8.73;88.39;101040.20;1804500;78;25871;-80
2022/10/31 02:40:31;;;;;;;46.00;32.05;;;;;;;8.72;88.23;101039.05;1800937;78;27462;-80
2022/10/31 02:43:14;;;;;;;52.40;32.70;;;;;;;8.68;88.31;101035.88;1801385;78;25805;-80
2022/10/31 02:46:13;;;;;;;45.55;31.12;;;;;;;8.67;88.39;101044.88;1806630;78;26570;-81
2022/10/31 02:48:43;;;;;;;47.83;32.03;;;;;;;8.67;88.42;101047.55;1811827;78;26212;-79
2022/10/31 02:51:11;;;;;;;49.65;31.12;;;;;;;8.66;88.43;101053.06;1805836;78;26378;-80
2022/10/31 02:53:38;;;;;;;45.60;32.10;;;;;;;8.64;88.33;101059.06;1801849;78;27436;-80
2022/10/31 02:56:13;;;;;;;42.88;30.97;;;;;;;8.62;88.35;101055.20;1794451;78;25822;-80
2022/10/31 02:58:50;;;;;;;43.25;29.90;;;;;;;8.59;88.28;101058.22;1789388;78;25847;-78
2022/10/31 03:01:49;;;;;;;41.68;29.90;;;;;;;8.57;88.37;101063.38;1801737;78;25791;-80
2022/10/31 03:04:32;;;;;;;40.88;30.48;;;;;;;8.57;88.46;101068.22;1810645;78;25808;-80
2022/10/31 03:07:22;;;;;;;49.15;30.05;;;;;;;8.55;88.31;101070.22;1796336;78;27532;-79
2022/10/31 03:10:14;;;;;;;40.13;26.83;;;;;;;8.54;88.17;101069.88;1839175;77;25745;-79
2022/10/31 03:12:55;;;;;;;41.13;25.60;;;;;;;8.52;88.08;101077.21;1787288;79;25949;-79
2022/10/31 03:15:33;;;;;;;39.25;25.12;;;;;;;8.49;87.83;101077.03;1809895;78;25925;-77
2022/10/31 03:18:31;;;;;;;32.78;24.55;;;;;;;8.45;87.78;101072.17;1796070;78;26024;-79
2022/10/31 03:21:10;;;;;;;41.40;27.55;;;;;;;8.41;87.51;101070.83;1806771;78;28278;-79
2022/10/31 03:23:37;;;;;;;39.03;27.10;;;;;;;8.37;87.45;101078.33;1789370;79;25692;-78
2022/10/31 03:26:07;;;;;;;49.60;30.20;;;;;;;8.34;87.88;101072.48;1812269;78;25775;-79
2022/10/31 03:28:42;;;;;;;57.03;26.35;;;;;;;8.30;87.79;101081.30;1808173;78;27087;-79
2022/10/31 03:31:12;;;;;;;39.78;27.02;;;;;;;8.24;87.63;101077.06;1800954;78;25894;-78
2022/10/31 03:33:42;;;;;;;38.75;24.90;;;;;;;8.19;87.69;101075.39;1804850;78;26957;-79
2022/10/31 03:38:35;;;;;;;44.20;26.25;;;;;;;8.19;87.40;101075.39;1822427;77;25158;-78
2022/10/31 03:41:06;;;;;;;46.50;28.38;;;;;;;8.14;87.48;101081.69;1845910;76;25704;-76
2022/10/31 03:43:37;;;;;;;57.00;28.42;;;;;;;8.11;87.78;101089.51;1791326;78;27427;-78
2022/10/31 03:46:04;;;;;;;42.13;27.48;;;;;;;8.10;88.05;101087.85;1818704;78;25800;-76
2022/10/31 03:48:31;;;;;;;45.52;27.85;;;;;;;8.08;88.03;101087.17;1825060;78;25713;-77
2022/10/31 03:51:08;;;;;;;69.65;29.27;;;;;;;8.07;88.10;101085.48;1805709;78;25956;-78
2022/10/31 03:53:46;;;;;;;38.35;27.40;;;;;;;8.08;88.24;101085.00;1811597;78;25902;-77
2022/10/31 03:56:50;;;;;;;43.68;27.77;;;;;;;8.07;88.41;101080.64;1823452;78;27819;-78
2022/10/31 03:59:28;;;;;;;62.38;27.62;;;;;;;8.08;88.54;101089.00;1807573;77;26216;-78
2022/10/31 04:02:00;;;;;;;39.50;26.30;;;;;;;8.07;88.67;101091.31;1790628;78;25299;-77
2022/10/31 04:04:29;;;;;;;39.33;26.60;;;;;;;8.07;88.63;101096.65;1806619;78;26403;-78
2022/10/31 04:06:59;;;;;;;41.13;26.65;;;;;;;8.07;88.67;101095.31;1819817;78;25782;-77
2022/10/31 04:09:28;;;;;;;36.87;25.80;;;;;;;8.04;88.65;101088.98;1810110;78;28317;-77
2022/10/31 04:11:58;;;;;;;36.83;24.98;;;;;;;8.03;88.60;101090.81;1812459;78;25994;-77
2022/10/31 04:14:36;;;;;;;33.20;22.80;;;;;;;8.02;88.57;101085.11;1805349;78;25717;-77
2022/10/31 04:17:07;;;;;;;31.10;22.43;;;;;;;8.01;88.76;101086.12;1806067;78;25741;-79
2022/10/31 04:19:35;;;;;;;36.15;23.25;;;;;;;8.02;88.93;101093.64;1793472;78;25893;-77
2022/10/31 04:22:01;;;;;;;33.83;23.10;;;;;;;7.99;88.88;101088.12;1823289;78;28702;-77
2022/10/31 04:24:29;;;;;;;30.88;21.75;;;;;;;8.00;88.82;101103.12;1795311;78;25746;-77
2022/10/31 04:26:55;;;;;;;34.38;22.20;;;;;;;7.98;88.65;101100.26;1782622;78;25825;-78
2022/10/31 04:29:22;;;;;;;38.58;23.38;;;;;;;7.95;88.68;101101.92;1818373;78;26383;-78
2022/10/31 04:31:49;;;;;;;36.40;23.83;;;;;;;7.92;88.50;101100.89;1822529;78;25976;-78
2022/10/31 04:34:17;;;;;;;36.50;23.75;;;;;;;7.91;88.50;101105.91;1826712;78;27446;-77
2022/10/31 04:36:44;;;;;;;37.28;23.18;;;;;;;7.89;88.53;101106.05;1815685;78;25922;-78
2022/10/31 04:39:12;;;;;;;31.42;21.55;;;;;;;7.87;88.43;101108.55;1823280;78;25812;-77
2022/10/31 04:41:40;;;;;;;31.37;21.48;;;;;;;7.86;88.24;101114.38;1817818;78;26352;-77
2022/10/31 04:44:08;;;;;;;36.03;24.20;;;;;;;7.82;88.08;101114.35;1821677;78;26463;-77
2022/10/31 04:46:35;;;;;;;27.45;20.30;;;;;;;7.77;87.79;101110.81;1806119;78;27453;-78
2022/10/31 04:49:01;;;;;;;31.20;21.73;;;;;;;7.76;87.78;101114.98;1809298;78;25681;-78
2022/10/31 04:51:28;;;;;;;35.03;22.52;;;;;;;7.75;87.76;101111.96;1801606;78;26463;-78
2022/10/31 04:53:55;;;;;;;36.00;22.07;;;;;;;7.75;87.92;101113.30;1823766;78;25985;-76
2022/10/31 04:56:27;;;;;;;34.43;21.40;;;;;;;7.74;87.69;101115.64;1818378;78;25811;-77
2022/10/31 04:59:01;;;;;;;30.75;20.05;;;;;;;7.72;87.65;101109.59;1827554;78;28270;-78
2022/10/31 05:01:29;;;;;;;28.62;19.42;;;;;;;7.71;87.66;101109.27;1818943;78;26395;-77
2022/10/31 05:03:57;;;;;;;30.82;19.25;;;;;;;7.70;87.70;101107.09;1818524;78;25887;-78
2022/10/31 05:06:24;;;;;;;32.40;20.15;;;;;;;7.69;87.52;101106.77;1818844;78;26472;-78
2022/10/31 05:08:50;;;;;;;29.65;19.42;;;;;;;7.67;87.47;101109.24;1821169;78;25808;-77
2022/10/31 05:11:16;;;;;;;32.83;20.77;;;;;;;7.66;87.54;101106.22;1807278;78;27923;-78
2022/10/31 05:13:44;;;;;;;29.85;19.55;;;;;;;7.66;87.55;101101.73;1816427;78;25238;-77
2022/10/31 05:16:13;;;;;;;30.97;20.70;;;;;;;7.66;87.34;101110.22;1823015;78;25763;-78
2022/10/31 05:18:39;;;;;;;36.03;20.50;;;;;;;7.62;87.14;101107.53;1818684;78;26021;-78
2022/10/31 05:21:23;;;;;;;39.42;22.73;;;;;;;7.60;87.15;101106.84;1807929;78;25734;-77
2022/10/31 05:23:52;;;;;;;35.63;23.50;;;;;;;7.58;87.27;101104.83;1810681;78;27451;-79
2022/10/31 05:26:19;;;;;;;35.00;22.80;;;;;;;7.56;87.35;101100.16;1823771;78;25770;-77
2022/10/31 05:28:46;;;;;;;37.38;21.97;;;;;;;7.54;87.40;101096.81;1824360;78;26394;-77
2022/10/31 05:31:12;;;;;;;34.00;20.65;;;;;;;7.52;87.47;101096.12;1823895;78;25889;-77
2022/10/31 05:33:38;;;;;;;34.05;21.00;;;;;;;7.52;87.58;101098.80;1816641;78;26218;-77
2022/10/31 05:36:25;;;;;;;34.98;20.72;;;;;;;7.53;87.67;101097.78;1814339;78;27461;-77
2022/10/31 05:38:53;;;;;;;35.63;21.80;;;;;;;7.52;87.47;101101.46;1797758;79;25907;-76
2022/10/31 05:41:30;;;;;;;37.63;20.95;;;;;;;7.51;87.23;101103.28;1796862;78;25822;-77
2022/10/31 05:44:07;;;;;;;40.08;22.85;;;;;;;7.44;86.95;101104.07;1794503;79;25748;-77
2022/10/31 05:46:35;;;;;;;43.95;23.73;;;;;;;7.35;86.68;101104.50;1793169;78;25261;-77
2022/10/31 05:49:02;;;;;;;39.92;22.25;;;;;;;7.26;86.62;101112.56;1795353;79;27485;-77
2022/10/31 05:51:47;;;;;;;43.20;23.83;;;;;;;7.23;86.78;101106.22;1795275;79;25765;-76
2022/10/31 05:54:13;;;;;;;40.73;23.42;;;;;;;7.19;86.85;101108.33;1801327;77;25902;-76
2022/10/31 05:56:40;;;;;;;33.05;22.17;;;;;;;7.18;86.98;101108.01;1785593;78;25983;-77
2022/10/31 05:59:06;;;;;;;34.98;20.77;;;;;;;7.17;87.25;101109.47;1792483;78;25798;-77
2022/10/31 06:01:32;;;;;;;36.03;21.45;;;;;;;7.16;87.40;101110.48;1796314;78;27420;-78
2022/10/31 06:04:01;;;;;;;32.80;19.48;;;;;;;7.17;87.66;101116.13;1797404;78;25319;-77
2022/10/31 06:06:29;;;;;;;32.83;21.68;;;;;;;7.19;88.19;101119.48;1800912;79;25868;-77
2022/10/31 06:08:56;;;;;;;33.67;20.60;;;;;;;7.23;88.49;101120.88;1798394;79;25856;-77
2022/10/31 06:11:23;;;;;;;31.10;21.23;;;;;;;7.28;88.73;101115.91;1797784;79;26200;-77
2022/10/31 06:13:55;;;;;;;34.33;23.35;;;;;;;7.32;89.06;101105.28;1803565;79;27424;-76
2022/10/31 06:16:23;;;;;;;34.03;23.32;;;;;;;7.36;89.33;101110.16;1801502;78;25290;-78
2022/10/31 06:18:49;;;;;;;42.17;26.87;;;;;;;7.41;89.49;101111.03;1799351;78;25765;-77
2022/10/31 06:21:16;;;;;;;44.77;29.48;;;;;;;7.45;89.71;101113.23;1794961;79;26494;-78
2022/10/31 06:23:43;;;;;;;44.60;30.48;;;;;;;7.50;90.05;101112.29;1794629;79;26530;-77
2022/10/31 06:26:17;;;;;;;42.93;28.92;;;;;;;7.57;90.31;101120.50;1741585;78;27467;-78
2022/10/31 06:28:44;;;;;;;38.28;23.70;;;;;;;7.62;90.34;101113.70;1794403;79;25715;-77
2022/10/31 06:31:12;;;;;;;33.38;22.22;;;;;;;7.67;90.50;101118.58;1797851;78;25931;-77
2022/10/31 06:33:41;;;;;;;31.57;21.20;;;;;;;7.69;90.72;101120.59;1797970;79;25758;-77
2022/10/31 06:36:09;;;;;;;29.48;20.23;;;;;;;7.74;91.20;101125.78;1802192;78;25896;-77
2022/10/31 06:38:36;;;;;;;29.12;18.57;;;;;;;7.77;91.56;101128.16;1824788;76;27454;-77
2022/10/31 06:41:06;;;;;;;28.52;19.92;;;;;;;7.81;91.74;101128.66;1809805;78;25688;-79
2022/10/31 06:43:37;;;;;;;30.88;21.33;;;;;;;7.85;92.07;101134.55;1802202;78;25810;-78
2022/10/31 06:46:22;;;;;;;38.08;22.37;;;;;;;7.90;92.40;101136.23;1799178;78;25868;-77
2022/10/31 06:48:50;;;;;;;34.15;23.67;;;;;;;7.96;93.02;101140.92;1803233;78;25796;-78
2022/10/31 06:51:18;;;;;;;31.48;22.37;;;;;;;8.02;93.56;101138.47;1813487;78;27619;-78
2022/10/31 06:53:44;;;;;;;35.00;23.77;;;;;;;8.09;94.06;101136.02;1827144;77;25809;-79
2022/10/31 06:56:11;;;;;;;36.75;23.22;;;;;;;8.14;94.47;101139.91;1832781;76;26263;-79
2022/10/31 06:58:39;;;;;;;30.97;21.35;;;;;;;8.21;94.86;101138.77;1831217;76;26034;-78
2022/10/31 07:01:07;;;;;;;34.53;21.02;;;;;;;8.26;95.08;101141.33;1773165;78;26032;-79
2022/10/31 07:03:33;;;;;;;30.85;21.55;;;;;;;8.33;95.41;101148.20;1831472;77;27516;-79
2022/10/31 07:05:59;;;;;;;31.77;22.77;;;;;;;8.40;95.76;101143.91;1798333;78;26536;-77
2022/10/31 07:08:26;;;;;;;29.25;22.00;;;;;;;8.45;96.08;101141.09;1805419;78;25766;-79
2022/10/31 07:10:56;;;;;;;34.70;21.87;;;;;;;8.52;96.44;101145.30;1808869;78;25844;-79
2022/10/31 07:13:25;;;;;;;31.55;22.60;;;;;;;8.59;96.82;101149.00;1799717;78;25869;-79
2022/10/31 07:15:57;;;;;;;31.42;21.05;;;;;;;8.66;97.18;101151.87;1808307;78;27504;-79
2022/10/31 07:18:23;;;;;;;31.33;22.80;;;;;;;8.71;97.33;101154.88;1813825;78;25888;-79
2022/10/31 07:20:51;;;;;;;31.02;21.75;;;;;;;8.77;97.48;101160.41;1808376;78;26344;-78
2022/10/31 07:23:18;;;;;;;34.92;24.07;;;;;;;8.87;98.73;101162.47;1812409;78;26475;-77
2022/10/31 07:25:46;;;;;;;56.73;27.30;;;;;;;9.01;99.24;101152.97;1802992;78;25766;-78
2022/10/31 07:28:18;;;;;;;44.53;24.90;;;;;;;9.09;98.99;101155.66;1799018;78;28350;-77
2022/10/31 07:30:54;;;;;;;49.13;27.40;;;;;;;9.17;99.13;101147.68;1775836;78;25849;-78
2022/10/31 07:33:21;;;;;;;45.38;26.35;;;;;;;9.25;99.34;101157.05;1790175;78;25838;-77
2022/10/31 07:35:55;;;;;;;56.02;31.07;;;;;;;9.32;99.62;101157.55;1759994;78;26511;-77
2022/10/31 07:38:23;;;;;;;69.20;44.18;;;;;;;9.40;99.88;101155.39;1800975;78;25794;-78
2022/10/31 07:40:54;;;;;;;90.92;56.23;;;;;;;9.45;99.93;101157.58;1806255;78;28274;-80
2022/10/31 07:43:22;;;;;;;104.35;65.78;;;;;;;9.51;100.00;101158.24;1791325;79;25980;-77
2022/10/31 07:45:54;;;;;;;89.52;54.10;;;;;;;9.56;100.00;101147.38;1806173;76;26626;-79
2022/10/31 07:48:25;;;;;;;66.45;33.50;;;;;;;9.65;100.00;101149.55;1751552;78;25874;-79
2022/10/31 07:51:02;;;;;;;58.45;28.07;;;;;;;9.74;100.00;101149.39;1781741;79;26717;-78
2022/10/31 07:53:47;;;;;;;47.90;27.15;;;;;;;9.84;100.00;101144.69;1833897;76;26613;-81
2022/10/31 07:56:18;;;;;;;45.98;26.05;;;;;;;9.93;100.00;101141.01;1832003;77;25803;-85
2022/10/31 07:58:44;;;;;;;45.20;26.37;;;;;;;10.02;100.00;101140.00;1831798;77;25932;-84
2022/10/31 08:01:10;;;;;;;62.48;23.83;;;;;;;10.11;100.00;101139.52;1807527;77;25894;-83
2022/10/31 08:03:38;;;;;;;52.40;24.63;;;;;;;10.18;100.00;101139.14;1834941;77;25305;-83
2022/10/31 08:06:07;;;;;;;60.43;24.63;;;;;;;10.26;100.00;101147.17;1794357;79;27693;-85
2022/10/31 08:08:40;;;;;;;45.40;25.02;;;;;;;10.33;100.00;101150.81;1803197;78;25874;-84
2022/10/31 08:11:07;;;;;;;62.55;26.57;;;;;;;10.41;100.00;101153.98;1822829;77;25621;-83
2022/10/31 08:13:34;;;;;;;68.78;27.20;;;;;;;10.47;100.00;101160.84;1798020;78;26218;-84
2022/10/31 08:16:04;;;;;;;55.50;25.37;;;;;;;10.53;100.00;101167.33;1789519;78;25838;-83
2022/10/31 08:18:31;;;;;;;45.52;24.43;;;;;;;10.60;100.00;101172.34;1779690;78;27631;-84
2022/10/31 08:20:58;;;;;;;63.42;26.93;;;;;;;10.67;100.00;101178.69;1813629;78;25912;-81
2022/10/31 08:23:24;;;;;;;55.73;26.97;;;;;;;10.73;100.00;101180.67;1821599;78;26080;-82
2022/10/31 08:25:52;;;;;;;53.63;28.50;;;;;;;10.78;100.00;101179.13;1806897;78;26429;-84
2022/10/31 08:28:19;;;;;;;61.55;28.90;;;;;;;10.84;100.00;101183.78;1814522;78;25952;-85
2022/10/31 08:30:47;;;;;;;65.03;28.70;;;;;;;10.91;100.00;101187.10;1812265;78;28644;-84
2022/10/31 08:33:31;;;;;;;58.38;27.58;;;;;;;10.96;100.00;101191.44;1816983;78;25890;-85
2022/10/31 08:36:16;;;;;;;64.97;29.50;;;;;;;11.01;100.00;101188.59;1815364;78;26074;-83
2022/10/31 08:38:50;;;;;;;81.15;29.90;;;;;;;11.06;100.00;101186.20;1816909;77;26641;-85
2022/10/31 08:41:16;;;;;;;69.32;30.30;;;;;;;11.13;100.00;101184.98;1819252;78;25660;-82
2022/10/31 08:43:43;;;;;;;59.30;28.38;;;;;;;11.18;100.00;101183.97;1801063;78;28446;-83
2022/10/31 08:46:10;;;;;;;61.83;28.87;;;;;;;11.23;100.00;101180.23;1774679;78;26262;-84
2022/10/31 08:48:37;;;;;;;77.15;31.57;;;;;;;11.28;100.00;101184.07;1802800;79;26047;-84
2022/10/31 08:51:04;;;;;;;60.28;31.60;;;;;;;11.33;100.00;101191.59;1786521;78;25804;-84
2022/10/31 08:53:31;;;;;;;66.55;29.07;;;;;;;11.38;100.00;101187.34;1807750;79;25854;-82
2022/10/31 08:56:02;;;;;;;68.90;31.70;;;;;;;11.45;100.00;101186.13;1769186;78;27647;-84
2022/10/31 08:58:28;;;;;;;71.92;32.15;;;;;;;11.50;100.00;101179.20;1821863;77;26283;-84
2022/10/31 09:01:00;;;;;;;70.47;29.80;;;;;;;11.57;100.00;101183.35;1831198;77;25742;-84
2022/10/31 09:03:30;;;;;;;60.15;28.75;;;;;;;11.65;100.00;101177.42;1808361;78;25818;-77
2022/10/31 09:05:59;;;;;;;;;;;;;;;11.75;100.00;101176.37;1794167;77;25764;-77
2022/10/31 09:08:30;;;;;;;75.55;30.80;;;;;;;11.82;100.00;101165.26;1831813;77;27458;-84
2022/10/31 09:10:57;;;;;;;78.20;30.30;;;;;;;11.86;100.00;101169.25;1812417;77;25778;-79
2022/10/31 09:13:42;;;;;;;73.52;31.93;;;;;;;11.92;100.00;101168.52;1813367;77;25830;-80
2022/10/31 09:16:27;;;;;;;75.60;30.45;;;;;;;11.97;100.00;101175.03;1807960;78;25774;-79
2022/10/31 09:18:54;;;;;;;59.15;28.65;;;;;;;12.01;100.00;101183.04;1828362;77;25707;-79
2022/10/31 09:21:20;;;;;;;71.87;31.02;;;;;;;12.06;100.00;101178.47;1802997;78;27460;-79
2022/10/31 09:23:46;;;;;;;101.92;31.68;;;;;;;12.09;100.00;101175.41;1777897;78;26518;-79
2022/10/31 09:26:14;;;;;;;72.97;28.73;;;;;;;12.13;100.00;101177.55;1790989;78;25497;-80
2022/10/31 09:28:44;;;;;;;101.47;27.77;;;;;;;12.19;100.00;101178.66;1789420;78;25912;-80
2022/10/31 09:31:15;;;;;;;64.70;27.62;;;;;;;12.23;100.00;101183.48;1809832;78;25806;-80
2022/10/31 09:33:54;;;;;;;92.50;29.18;;;;;;;12.26;100.00;101180.44;1802422;78;28322;-79
2022/10/31 09:36:37;;;;;;;88.62;28.35;;;;;;;12.30;100.00;101183.58;1809604;78;25976;-84
2022/10/31 09:39:07;;;;;;;69.85;27.65;;;;;;;12.34;100.00;101179.50;1802323;78;25819;-84
2022/10/31 09:44:22;;;;;;;68.07;26.35;;;;;;;12.48;100.00;101189.95;1769476;79;26054;-84
2022/10/31 09:46:56;;;;;;;82.20;27.25;;;;;;;12.48;100.00;101189.95;1685844;84;25766;-84
2022/10/31 09:49:47;;;;;;;91.35;29.65;;;;;;;12.51;100.00;101191.75;1691473;84;27451;-84
2022/10/31 09:52:23;;;;;;;104.17;29.45;;;;;;;12.53;100.00;101185.67;1697052;82;25917;-84
2022/10/31 09:55:00;;;;;;;95.07;29.72;;;;;;;12.57;100.00;101189.69;1693207;82;25807;-85
2022/10/31 09:57:32;;;;;;;82.30;30.82;;;;;;;12.61;100.00;101192.83;1691134;82;25633;-84
2022/10/31 09:59:59;;;;;;;95.65;32.90;;;;;;;12.64;100.00;101193.81;1688283;82;26512;-84
2022/10/31 10:02:46;;;;;;;64.47;31.40;;;;;;;12.66;100.00;101199.30;1693065;82;27470;-81
2022/10/31 10:05:25;;;;;;;80.57;31.82;;;;;;;12.70;100.00;101199.79;1688761;84;25840;-83
2022/10/31 10:08:06;;;;;;;83.30;32.50;;;;;;;12.73;100.00;101192.17;1691038;83;26623;-87
2022/10/31 10:11:27;;;;;;;85.85;34.35;;;;;;;12.77;100.00;101191.28;1661159;84;25450;-88
2022/10/31 10:14:15;;;;;;;73.25;32.35;;;;;;;12.80;100.00;101187.73;1687771;83;25665;-84
2022/10/31 10:17:09;;;;;;;73.42;34.35;;;;;;;12.84;100.00;101183.64;1673568;83;27493;-85
2022/10/31 10:20:05;;;;;;;80.62;33.23;;;;;;;12.88;100.00;101193.00;1691352;82;26109;-84
2022/10/31 10:22:57;;;;;;;83.00;35.08;;;;;;;12.93;100.00;101193.28;1683072;82;25376;-82
2022/10/31 10:25:35;;;;;;;95.00;35.83;;;;;;;12.98;100.00;101188.69;1682280;84;26347;-87
2022/10/31 10:28:26;;;;;;;91.47;35.08;;;;;;;13.01;100.00;101189.64;1688647;83;25813;-86
2022/10/31 10:31:01;;;;;;;84.83;37.35;;;;;;;13.05;100.00;101189.61;1672049;84;28409;-86
2022/10/31 10:33:45;;;;;;;80.77;35.73;;;;;;;13.08;100.00;101190.59;1675905;83;25758;-88
2022/10/31 10:37:00;;;;;;;;;;;;;;;;;;;;;
2022/10/31 10:48:10;;;;;;;78.02;36.35;;;;;;;13.25;100.00;101177.24;1676073;84;25907;-88
2022/10/31 10:50:39;;;;;;;88.70;38.73;;;;;;;13.29;100.00;101180.38;1649624;85;26142;-79
2022/10/31 10:53:35;;;;;;;110.00;42.33;;;;;;;13.33;100.00;101178.97;1633603;85;27881;-86
2022/10/31 10:56:18;;;;;;;82.10;39.30;;;;;;;13.37;100.00;101178.91;1663036;84;26667;-82
2022/10/31 10:58:45;;;;;;;84.95;38.95;;;;;;;13.40;100.00;101175.34;1655173;84;27545;-77
2022/10/31 11:01:14;;;;;;;93.72;39.08;;;;;;;13.45;100.00;101179.61;1665185;84;25915;-77
2022/10/31 11:03:42;;;;;;;80.50;38.98;;;;;;;13.47;100.00;101177.56;1667570;84;26290;-78
2022/10/31 11:06:25;;;;;;;81.53;37.53;;;;;;;13.49;100.00;101174.20;1654773;84;25901;-78
2022/10/31 11:08:53;;;;;;;78.12;34.60;;;;;;;13.53;100.00;101175.48;1661919;84;25326;-78
2022/10/31 11:11:32;;;;;;;75.00;34.25;;;;;;;13.55;100.00;101170.73;1654583;84;27484;-78
2022/10/31 11:14:12;;;;;;;76.82;34.85;;;;;;;13.57;100.00;101169.19;1669030;84;25757;-78
2022/10/31 11:16:43;;;;;;;78.10;35.25;;;;;;;13.59;100.00;101167.14;1661027;84;26313;-78
2022/10/31 11:19:20;;;;;;;75.50;37.25;;;;;;;13.62;100.00;101169.45;1660316;84;25542;-78
2022/10/31 11:21:47;;;;;;;79.62;36.93;;;;;;;13.65;100.00;101175.28;1666604;84;25895;-79
2022/10/31 11:24:18;;;;;;;74.77;36.58;;;;;;;13.68;100.00;101175.41;1666650;84;28265;-77
2022/10/31 11:26:46;;;;;;;;;;;;;;;13.71;100.00;101178.54;1667605;84;25295;-78
2022/10/31 11:29:21;;;;;;;83.12;38.80;;;;;;;13.73;100.00;101170.26;1664186;84;25752;-78
2022/10/31 11:31:50;;;;;;;86.28;39.73;;;;;;;13.73;100.00;101172.45;1661138;84;26468;-78
2022/10/31 11:34:28;;;;;;;87.05;39.70;;;;;;;13.77;100.00;101176.95;1664977;84;25929;-79
2022/10/31 11:36:59;;;;;;;87.40;41.35;;;;;;;13.80;100.00;101178.73;1669674;83;27471;-77
2022/10/31 11:39:26;;;;;;;94.35;46.13;;;;;;;13.84;100.00;101173.78;1666315;84;25831;-78
2022/10/31 11:41:54;;;;;;;84.28;45.08;;;;;;;13.86;100.00;101168.53;1671077;84;25765;-78
2022/10/31 11:44:29;;;;;;;106.52;58.02;;;;;;;13.89;100.00;101167.31;1743665;80;26349;-78
2022/10/31 11:47:00;;;;;;;119.13;70.95;;;;;;;13.90;100.00;101164.41;1744847;80;25856;-77
2022/10/31 11:49:41;;;;;;;93.92;48.63;;;;;;;13.92;100.00;101161.55;1746412;80;27535;-77
2022/10/31 11:52:24;;;;;;;91.05;44.67;;;;;;;13.94;100.00;101163.00;1744991;80;25771;-79